sensor_id;sensor_type;location;lat;lon;timestamp;P1;durP1;ratioP1;P2;durP2;ratioP2
42702;SDS011;28341;52.064;4.920;2022-11-15T00:01:36;84.25;;;41.53;;
42702;SDS011;28341;52.064;4.920;2022-11-15T00:03:59;95.13;;;45.33;;
42702;SDS011;28341;52.064;4.920;2022-11-15T00:06:22;93.72;;;46.17;;
42702;SDS011;28341;52.064;4.920;2022-11-15T00:08:47;89.55;;;43.53;;
42702;SDS011;28341;52.064;4.920;2022-11-15T00:11:10;101.07;;;45.13;;
42702;SDS011;28341;52.064;4.920;2022-11-15T00:13:34;85.53;;;42.20;;
42702;SDS011;28341;52.064;4.920;2022-11-15T00:15:57;91.95;;;44.28;;
42702;SDS011;28341;52.064;4.920;2022-11-15T00:18:20;101.03;;;44.60;;
42702;SDS011;28341;52.064;4.920;2022-11-15T00:20:43;94.82;;;44.47;;
42702;SDS011;28341;52.064;4.920;2022-11-15T00:23:06;100.63;;;44.42;;
42702;SDS011;28341;52.064;4.920;2022-11-15T00:25:31;121.70;;;46.87;;
42702;SDS011;28341;52.064;4.920;2022-11-15T00:27:54;95.93;;;42.67;;
42702;SDS011;28341;52.064;4.920;2022-11-15T00:30:18;104.03;;;47.42;;
42702;SDS011;28341;52.064;4.920;2022-11-15T00:32:40;119.43;;;48.40;;
42702;SDS011;28341;52.064;4.920;2022-11-15T00:35:03;103.75;;;46.25;;
42702;SDS011;28341;52.064;4.920;2022-11-15T00:39:49;103.82;;;46.95;;
42702;SDS011;28341;52.064;4.920;2022-11-15T00:42:14;103.28;;;46.03;;
42702;SDS011;28341;52.064;4.920;2022-11-15T00:44:37;114.63;;;47.92;;
42702;SDS011;28341;52.064;4.920;2022-11-15T00:47:00;133.98;;;48.42;;
42702;SDS011;28341;52.064;4.920;2022-11-15T00:49:22;131.00;;;49.72;;
42702;SDS011;28341;52.064;4.920;2022-11-15T00:51:45;114.50;;;49.67;;
42702;SDS011;28341;52.064;4.920;2022-11-15T00:54:08;108.15;;;48.47;;
42702;SDS011;28341;52.064;4.920;2022-11-15T00:56:30;108.72;;;49.30;;
42702;SDS011;28341;52.064;4.920;2022-11-15T00:58:55;121.10;;;49.75;;
42702;SDS011;28341;52.064;4.920;2022-11-15T01:01:18;118.47;;;48.30;;
42702;SDS011;28341;52.064;4.920;2022-11-15T01:03:41;144.48;;;53.97;;
42702;SDS011;28341;52.064;4.920;2022-11-15T01:06:04;134.88;;;50.67;;
42702;SDS011;28341;52.064;4.920;2022-11-15T01:08:28;150.60;;;52.10;;
42702;SDS011;28341;52.064;4.920;2022-11-15T01:10:51;128.82;;;52.38;;
42702;SDS011;28341;52.064;4.920;2022-11-15T01:13:14;140.30;;;55.50;;
42702;SDS011;28341;52.064;4.920;2022-11-15T01:15:41;138.85;;;56.65;;
42702;SDS011;28341;52.064;4.920;2022-11-15T01:18:04;132.43;;;52.28;;
42702;SDS011;28341;52.064;4.920;2022-11-15T01:20:26;141.52;;;55.10;;
42702;SDS011;28341;52.064;4.920;2022-11-15T01:22:49;127.80;;;54.55;;
42702;SDS011;28341;52.064;4.920;2022-11-15T01:25:12;155.38;;;57.97;;
42702;SDS011;28341;52.064;4.920;2022-11-15T01:27:34;126.78;;;53.08;;
42702;SDS011;28341;52.064;4.920;2022-11-15T01:29:57;135.57;;;55.10;;
42702;SDS011;28341;52.064;4.920;2022-11-15T01:32:22;125.70;;;52.17;;
42702;SDS011;28341;52.064;4.920;2022-11-15T01:34:45;127.07;;;51.90;;
42702;SDS011;28341;52.064;4.920;2022-11-15T01:37:08;127.82;;;52.63;;
42702;SDS011;28341;52.064;4.920;2022-11-15T01:39:30;127.85;;;52.33;;
42702;SDS011;28341;52.064;4.920;2022-11-15T01:41:53;126.57;;;51.33;;
42702;SDS011;28341;52.064;4.920;2022-11-15T01:47:02;113.57;;;50.17;;
42702;SDS011;28341;52.064;4.920;2022-11-15T01:49:31;141.15;;;55.50;;
42702;SDS011;28341;52.064;4.920;2022-11-15T01:51:56;165.43;;;56.70;;
42702;SDS011;28341;52.064;4.920;2022-11-15T01:54:20;133.70;;;54.92;;
42702;SDS011;28341;52.064;4.920;2022-11-15T01:56:44;141.63;;;57.60;;
42702;SDS011;28341;52.064;4.920;2022-11-15T01:59:09;133.02;;;56.00;;
42702;SDS011;28341;52.064;4.920;2022-11-15T02:03:56;146.35;;;54.00;;
42702;SDS011;28341;52.064;4.920;2022-11-15T02:06:24;117.95;;;52.65;;
42702;SDS011;28341;52.064;4.920;2022-11-15T02:08:47;139.80;;;56.67;;
42702;SDS011;28341;52.064;4.920;2022-11-15T02:11:10;132.10;;;57.90;;
42702;SDS011;28341;52.064;4.920;2022-11-15T02:13:33;123.65;;;55.83;;
42702;SDS011;28341;52.064;4.920;2022-11-15T02:15:59;131.45;;;55.53;;
42702;SDS011;28341;52.064;4.920;2022-11-15T02:18:30;139.43;;;57.35;;
42702;SDS011;28341;52.064;4.920;2022-11-15T02:20:58;121.05;;;54.47;;
42702;SDS011;28341;52.064;4.920;2022-11-15T02:29:49;118.75;;;53.55;;
42702;SDS011;28341;52.064;4.920;2022-11-15T02:32:30;122.88;;;54.85;;
42702;SDS011;28341;52.064;4.920;2022-11-15T02:34:58;123.88;;;54.67;;
42702;SDS011;28341;52.064;4.920;2022-11-15T02:37:27;136.65;;;57.88;;
42702;SDS011;28341;52.064;4.920;2022-11-15T02:39:57;121.20;;;54.45;;
42702;SDS011;28341;52.064;4.920;2022-11-15T02:42:25;114.20;;;54.03;;
42702;SDS011;28341;52.064;4.920;2022-11-15T02:45:03;130.93;;;56.13;;
42702;SDS011;28341;52.064;4.920;2022-11-15T02:47:32;121.45;;;52.90;;
42702;SDS011;28341;52.064;4.920;2022-11-15T02:50:00;109.63;;;52.25;;
42702;SDS011;28341;52.064;4.920;2022-11-15T02:52:27;126.82;;;53.38;;
42702;SDS011;28341;52.064;4.920;2022-11-15T02:54:53;140.50;;;55.92;;
42702;SDS011;28341;52.064;4.920;2022-11-15T02:57:17;139.60;;;55.42;;
42702;SDS011;28341;52.064;4.920;2022-11-15T02:59:48;122.38;;;54.15;;
42702;SDS011;28341;52.064;4.920;2022-11-15T03:02:33;114.38;;;53.20;;
42702;SDS011;28341;52.064;4.920;2022-11-15T03:05:04;127.68;;;53.78;;
42702;SDS011;28341;52.064;4.920;2022-11-15T03:07:37;105.78;;;51.10;;
42702;SDS011;28341;52.064;4.920;2022-11-15T03:10:06;99.18;;;51.25;;
42702;SDS011;28341;52.064;4.920;2022-11-15T03:12:33;131.30;;;54.88;;
42702;SDS011;28341;52.064;4.920;2022-11-15T03:15:00;109.85;;;51.30;;
42702;SDS011;28341;52.064;4.920;2022-11-15T03:17:28;110.35;;;52.10;;
42702;SDS011;28341;52.064;4.920;2022-11-15T03:19:56;116.70;;;53.47;;
42702;SDS011;28341;52.064;4.920;2022-11-15T03:22:23;100.65;;;50.47;;
42702;SDS011;28341;52.064;4.920;2022-11-15T03:24:50;107.80;;;52.25;;
42702;SDS011;28341;52.064;4.920;2022-11-15T03:27:17;96.05;;;51.33;;
42702;SDS011;28341;52.064;4.920;2022-11-15T03:29:43;117.10;;;55.25;;
42702;SDS011;28341;52.064;4.920;2022-11-15T03:32:10;99.50;;;50.70;;
42702;SDS011;28341;52.064;4.920;2022-11-15T03:34:38;107.80;;;52.65;;
42702;SDS011;28341;52.064;4.920;2022-11-15T03:37:03;90.05;;;50.05;;
42702;SDS011;28341;52.064;4.920;2022-11-15T03:39:27;98.05;;;51.13;;
42702;SDS011;28341;52.064;4.920;2022-11-15T03:41:51;97.88;;;51.30;;
42702;SDS011;28341;52.064;4.920;2022-11-15T03:44:21;88.60;;;49.38;;
42702;SDS011;28341;52.064;4.920;2022-11-15T03:46:55;88.85;;;48.75;;
42702;SDS011;28341;52.064;4.920;2022-11-15T03:49:24;85.82;;;50.60;;
42702;SDS011;28341;52.064;4.920;2022-11-15T03:51:52;90.90;;;50.00;;
42702;SDS011;28341;52.064;4.920;2022-11-15T03:54:15;100.63;;;51.00;;
42702;SDS011;28341;52.064;4.920;2022-11-15T03:56:38;88.50;;;50.72;;
42702;SDS011;28341;52.064;4.920;2022-11-15T03:59:00;87.83;;;50.10;;
42702;SDS011;28341;52.064;4.920;2022-11-15T04:01:23;88.55;;;50.83;;
42702;SDS011;28341;52.064;4.920;2022-11-15T04:03:46;96.25;;;50.58;;
42702;SDS011;28341;52.064;4.920;2022-11-15T04:06:08;85.13;;;50.03;;
42702;SDS011;28341;52.064;4.920;2022-11-15T04:08:33;88.18;;;47.80;;
42702;SDS011;28341;52.064;4.920;2022-11-15T04:10:56;77.82;;;47.38;;
42702;SDS011;28341;52.064;4.920;2022-11-15T04:13:19;82.72;;;48.63;;
42702;SDS011;28341;52.064;4.920;2022-11-15T04:15:42;82.47;;;47.57;;
42702;SDS011;28341;52.064;4.920;2022-11-15T04:18:04;84.53;;;48.10;;
42702;SDS011;28341;52.064;4.920;2022-11-15T04:20:28;76.70;;;47.25;;
42702;SDS011;28341;52.064;4.920;2022-11-15T04:23:05;80.65;;;48.47;;
42702;SDS011;28341;52.064;4.920;2022-11-15T04:25:45;80.07;;;47.15;;
42702;SDS011;28341;52.064;4.920;2022-11-15T04:28:10;77.05;;;45.10;;
42702;SDS011;28341;52.064;4.920;2022-11-15T04:30:33;74.90;;;45.78;;
42702;SDS011;28341;52.064;4.920;2022-11-15T04:32:56;71.95;;;45.83;;
42702;SDS011;28341;52.064;4.920;2022-11-15T04:35:18;73.03;;;44.60;;
42702;SDS011;28341;52.064;4.920;2022-11-15T04:37:41;67.93;;;43.63;;
42702;SDS011;28341;52.064;4.920;2022-11-15T04:40:04;71.32;;;43.55;;
42702;SDS011;28341;52.064;4.920;2022-11-15T04:42:31;70.88;;;42.85;;
42702;SDS011;28341;52.064;4.920;2022-11-15T04:44:54;66.85;;;42.50;;
42702;SDS011;28341;52.064;4.920;2022-11-15T04:47:17;81.60;;;45.38;;
42702;SDS011;28341;52.064;4.920;2022-11-15T04:49:39;72.43;;;44.08;;
42702;SDS011;28341;52.064;4.920;2022-11-15T04:52:03;80.60;;;46.67;;
42702;SDS011;28341;52.064;4.920;2022-11-15T04:54:26;65.80;;;43.55;;
42702;SDS011;28341;52.064;4.920;2022-11-15T04:56:48;70.57;;;44.55;;
42702;SDS011;28341;52.064;4.920;2022-11-15T04:59:14;69.32;;;45.17;;
42702;SDS011;28341;52.064;4.920;2022-11-15T05:01:37;78.00;;;46.67;;
42702;SDS011;28341;52.064;4.920;2022-11-15T05:03:59;71.38;;;45.47;;
42702;SDS011;28341;52.064;4.920;2022-11-15T05:06:34;70.53;;;44.00;;
42702;SDS011;28341;52.064;4.920;2022-11-15T05:08:57;73.32;;;45.75;;
42702;SDS011;28341;52.064;4.920;2022-11-15T05:11:20;79.05;;;45.90;;
42702;SDS011;28341;52.064;4.920;2022-11-15T05:13:43;67.10;;;42.13;;
42702;SDS011;28341;52.064;4.920;2022-11-15T05:16:08;62.92;;;41.92;;
42702;SDS011;28341;52.064;4.920;2022-11-15T05:18:31;62.90;;;41.10;;
42702;SDS011;28341;52.064;4.920;2022-11-15T05:20:54;61.60;;;39.97;;
42702;SDS011;28341;52.064;4.920;2022-11-15T05:23:17;63.28;;;41.38;;
42702;SDS011;28341;52.064;4.920;2022-11-15T05:25:40;65.40;;;42.60;;
42702;SDS011;28341;52.064;4.920;2022-11-15T05:28:02;66.13;;;41.40;;
42702;SDS011;28341;52.064;4.920;2022-11-15T05:30:25;62.50;;;40.80;;
42702;SDS011;28341;52.064;4.920;2022-11-15T05:32:51;61.35;;;39.92;;
42702;SDS011;28341;52.064;4.920;2022-11-15T05:35:17;59.47;;;40.28;;
42702;SDS011;28341;52.064;4.920;2022-11-15T05:37:44;55.63;;;37.00;;
42702;SDS011;28341;52.064;4.920;2022-11-15T05:40:07;60.20;;;38.33;;
42702;SDS011;28341;52.064;4.920;2022-11-15T05:42:31;58.72;;;39.42;;
42702;SDS011;28341;52.064;4.920;2022-11-15T05:44:53;58.75;;;38.10;;
42702;SDS011;28341;52.064;4.920;2022-11-15T05:47:17;63.78;;;37.88;;
42702;SDS011;28341;52.064;4.920;2022-11-15T05:49:45;54.47;;;36.75;;
42702;SDS011;28341;52.064;4.920;2022-11-15T05:52:09;59.30;;;37.58;;
42702;SDS011;28341;52.064;4.920;2022-11-15T05:54:33;52.05;;;35.78;;
42702;SDS011;28341;52.064;4.920;2022-11-15T05:56:56;59.47;;;37.72;;
42702;SDS011;28341;52.064;4.920;2022-11-15T05:59:19;58.83;;;37.00;;
42702;SDS011;28341;52.064;4.920;2022-11-15T06:01:42;55.97;;;37.47;;
42702;SDS011;28341;52.064;4.920;2022-11-15T06:04:05;56.05;;;37.42;;
42702;SDS011;28341;52.064;4.920;2022-11-15T06:06:30;58.20;;;37.03;;
42702;SDS011;28341;52.064;4.920;2022-11-15T06:08:53;66.32;;;38.80;;
42702;SDS011;28341;52.064;4.920;2022-11-15T06:11:16;55.03;;;36.65;;
42702;SDS011;28341;52.064;4.920;2022-11-15T06:13:38;59.50;;;36.38;;
42702;SDS011;28341;52.064;4.920;2022-11-15T06:16:01;61.58;;;37.95;;
42702;SDS011;28341;52.064;4.920;2022-11-15T06:18:23;62.03;;;37.53;;
42702;SDS011;28341;52.064;4.920;2022-11-15T06:20:46;57.10;;;37.40;;
42702;SDS011;28341;52.064;4.920;2022-11-15T06:23:11;57.75;;;36.83;;
42702;SDS011;28341;52.064;4.920;2022-11-15T06:25:33;60.35;;;38.38;;
42702;SDS011;28341;52.064;4.920;2022-11-15T06:27:57;64.22;;;37.10;;
42702;SDS011;28341;52.064;4.920;2022-11-15T06:30:20;62.10;;;38.72;;
42702;SDS011;28341;52.064;4.920;2022-11-15T06:32:43;55.22;;;38.25;;
42702;SDS011;28341;52.064;4.920;2022-11-15T06:35:06;66.95;;;39.17;;
42702;SDS011;28341;52.064;4.920;2022-11-15T06:37:29;53.53;;;36.33;;
42702;SDS011;28341;52.064;4.920;2022-11-15T06:39:54;196.32;;;119.97;;
42702;SDS011;28341;52.064;4.920;2022-11-15T06:42:17;220.50;;;172.93;;
42702;SDS011;28341;52.064;4.920;2022-11-15T06:44:40;275.85;;;229.10;;
42702;SDS011;28341;52.064;4.920;2022-11-15T06:47:02;98.72;;;68.40;;
42702;SDS011;28341;52.064;4.920;2022-11-15T06:49:25;82.30;;;55.88;;
42702;SDS011;28341;52.064;4.920;2022-11-15T06:51:47;55.00;;;35.90;;
42702;SDS011;28341;52.064;4.920;2022-11-15T06:54:10;55.17;;;35.35;;
42702;SDS011;28341;52.064;4.920;2022-11-15T06:56:36;71.37;;;38.60;;
42702;SDS011;28341;52.064;4.920;2022-11-15T06:58:59;61.65;;;37.10;;
42702;SDS011;28341;52.064;4.920;2022-11-15T07:01:21;49.27;;;33.30;;
42702;SDS011;28341;52.064;4.920;2022-11-15T07:03:44;49.50;;;32.50;;
42702;SDS011;28341;52.064;4.920;2022-11-15T07:06:07;53.80;;;34.35;;
42702;SDS011;28341;52.064;4.920;2022-11-15T07:08:30;184.93;;;146.10;;
42702;SDS011;28341;52.064;4.920;2022-11-15T07:10:54;168.25;;;121.78;;
42702;SDS011;28341;52.064;4.920;2022-11-15T07:13:26;71.93;;;47.60;;
42702;SDS011;28341;52.064;4.920;2022-11-15T07:15:51;63.30;;;37.63;;
42702;SDS011;28341;52.064;4.920;2022-11-15T07:18:14;59.30;;;35.80;;
42702;SDS011;28341;52.064;4.920;2022-11-15T07:20:36;51.30;;;34.97;;
42702;SDS011;28341;52.064;4.920;2022-11-15T07:23:00;60.08;;;37.25;;
42702;SDS011;28341;52.064;4.920;2022-11-15T07:25:23;60.75;;;35.28;;
42702;SDS011;28341;52.064;4.920;2022-11-15T07:27:53;48.88;;;34.60;;
42702;SDS011;28341;52.064;4.920;2022-11-15T07:30:19;54.63;;;34.00;;
42702;SDS011;28341;52.064;4.920;2022-11-15T07:32:41;148.68;;;113.22;;
42702;SDS011;28341;52.064;4.920;2022-11-15T07:37:28;60.72;;;36.88;;
42702;SDS011;28341;52.064;4.920;2022-11-15T07:39:51;47.38;;;32.30;;
42702;SDS011;28341;52.064;4.920;2022-11-15T07:42:13;54.17;;;32.83;;
42702;SDS011;28341;52.064;4.920;2022-11-15T07:44:49;53.00;;;33.22;;
42702;SDS011;28341;52.064;4.920;2022-11-15T07:47:14;56.40;;;33.30;;
42702;SDS011;28341;52.064;4.920;2022-11-15T07:49:36;52.95;;;33.08;;
42702;SDS011;28341;52.064;4.920;2022-11-15T07:51:59;54.40;;;33.65;;
42702;SDS011;28341;52.064;4.920;2022-11-15T07:54:22;52.53;;;31.98;;
42702;SDS011;28341;52.064;4.920;2022-11-15T07:56:45;54.78;;;31.63;;
42702;SDS011;28341;52.064;4.920;2022-11-15T07:59:07;53.60;;;32.75;;
42702;SDS011;28341;52.064;4.920;2022-11-15T08:01:30;48.38;;;30.20;;
42702;SDS011;28341;52.064;4.920;2022-11-15T08:03:55;51.67;;;31.27;;
42702;SDS011;28341;52.064;4.920;2022-11-15T08:06:18;55.03;;;30.27;;
42702;SDS011;28341;52.064;4.920;2022-11-15T08:08:40;50.58;;;30.55;;
42702;SDS011;28341;52.064;4.920;2022-11-15T08:11:03;41.00;;;28.60;;
42702;SDS011;28341;52.064;4.920;2022-11-15T08:13:26;44.60;;;29.25;;
42702;SDS011;28341;52.064;4.920;2022-11-15T08:15:49;49.35;;;29.48;;
42702;SDS011;28341;52.064;4.920;2022-11-15T08:18:19;46.13;;;28.10;;
42702;SDS011;28341;52.064;4.920;2022-11-15T08:20:44;46.10;;;25.52;;
42702;SDS011;28341;52.064;4.920;2022-11-15T08:23:06;41.78;;;25.20;;
42702;SDS011;28341;52.064;4.920;2022-11-15T08:25:31;40.38;;;24.58;;
42702;SDS011;28341;52.064;4.920;2022-11-15T08:27:56;36.67;;;24.08;;
42702;SDS011;28341;52.064;4.920;2022-11-15T08:30:20;63.03;;;43.15;;
42702;SDS011;28341;52.064;4.920;2022-11-15T08:32:44;66.85;;;46.55;;
42702;SDS011;28341;52.064;4.920;2022-11-15T08:35:07;37.83;;;23.33;;
42702;SDS011;28341;52.064;4.920;2022-11-15T08:37:32;40.97;;;24.00;;
42702;SDS011;28341;52.064;4.920;2022-11-15T08:39:55;37.05;;;23.08;;
42702;SDS011;28341;52.064;4.920;2022-11-15T08:42:18;40.17;;;23.33;;
42702;SDS011;28341;52.064;4.920;2022-11-15T08:44:41;36.88;;;22.48;;
42702;SDS011;28341;52.064;4.920;2022-11-15T08:47:04;34.63;;;21.58;;
42702;SDS011;28341;52.064;4.920;2022-11-15T08:49:26;33.45;;;21.80;;
42702;SDS011;28341;52.064;4.920;2022-11-15T08:51:49;44.20;;;21.13;;
42702;SDS011;28341;52.064;4.920;2022-11-15T08:54:14;34.38;;;20.98;;
42702;SDS011;28341;52.064;4.920;2022-11-15T08:56:37;35.72;;;19.15;;
42702;SDS011;28341;52.064;4.920;2022-11-15T08:58:59;26.52;;;17.13;;
42702;SDS011;28341;52.064;4.920;2022-11-15T09:01:22;32.75;;;19.45;;
42702;SDS011;28341;52.064;4.920;2022-11-15T09:03:46;31.02;;;17.98;;
42702;SDS011;28341;52.064;4.920;2022-11-15T09:06:08;29.33;;;18.97;;
42702;SDS011;28341;52.064;4.920;2022-11-15T09:08:31;26.67;;;17.97;;
42702;SDS011;28341;52.064;4.920;2022-11-15T09:10:57;32.90;;;17.95;;
42702;SDS011;28341;52.064;4.920;2022-11-15T09:13:20;32.25;;;16.98;;
42702;SDS011;28341;52.064;4.920;2022-11-15T09:15:43;23.00;;;16.95;;
42702;SDS011;28341;52.064;4.920;2022-11-15T09:18:06;26.70;;;17.88;;
42702;SDS011;28341;52.064;4.920;2022-11-15T09:20:29;28.33;;;17.23;;
42702;SDS011;28341;52.064;4.920;2022-11-15T09:22:52;26.67;;;17.65;;
42702;SDS011;28341;52.064;4.920;2022-11-15T09:25:14;25.25;;;16.30;;
42702;SDS011;28341;52.064;4.920;2022-11-15T09:27:40;29.67;;;17.10;;
42702;SDS011;28341;52.064;4.920;2022-11-15T09:30:03;22.48;;;14.65;;
42702;SDS011;28341;52.064;4.920;2022-11-15T09:32:28;26.75;;;15.75;;
42702;SDS011;28341;52.064;4.920;2022-11-15T09:34:51;22.92;;;14.57;;
42702;SDS011;28341;52.064;4.920;2022-11-15T09:37:13;19.67;;;13.80;;
42702;SDS011;28341;52.064;4.920;2022-11-15T09:39:36;25.08;;;14.35;;
42702;SDS011;28341;52.064;4.920;2022-11-15T09:42:08;22.02;;;14.05;;
42702;SDS011;28341;52.064;4.920;2022-11-15T09:44:55;19.20;;;13.45;;
42702;SDS011;28341;52.064;4.920;2022-11-15T09:50:28;17.40;;;11.80;;
42702;SDS011;28341;52.064;4.920;2022-11-15T09:52:39;20.52;;;11.95;;
42702;SDS011;28341;52.064;4.920;2022-11-15T09:54:47;18.42;;;11.15;;
42702;SDS011;28341;52.064;4.920;2022-11-15T09:56:53;18.33;;;10.50;;
42702;SDS011;28341;52.064;4.920;2022-11-15T09:59:08;19.98;;;10.68;;
42702;SDS011;28341;52.064;4.920;2022-11-15T10:01:30;16.83;;;10.05;;
42702;SDS011;28341;52.064;4.920;2022-11-15T10:03:42;17.42;;;10.43;;
42702;SDS011;28341;52.064;4.920;2022-11-15T10:05:47;16.73;;;9.85;;
42702;SDS011;28341;52.064;4.920;2022-11-15T10:07:57;18.52;;;11.05;;
42702;SDS011;28341;52.064;4.920;2022-11-15T10:10:09;18.38;;;10.43;;
42702;SDS011;28341;52.064;4.920;2022-11-15T10:12:17;16.63;;;9.85;;
42702;SDS011;28341;52.064;4.920;2022-11-15T10:14:23;16.55;;;10.23;;
42702;SDS011;28341;52.064;4.920;2022-11-15T10:16:40;19.25;;;10.13;;
42702;SDS011;28341;52.064;4.920;2022-11-15T10:19:06;19.80;;;10.07;;
42702;SDS011;28341;52.064;4.920;2022-11-15T10:21:17;13.43;;;9.52;;
42702;SDS011;28341;52.064;4.920;2022-11-15T10:23:23;16.90;;;9.23;;
42702;SDS011;28341;52.064;4.920;2022-11-15T10:25:28;15.80;;;8.27;;
42702;SDS011;28341;52.064;4.920;2022-11-15T10:27:34;12.50;;;7.95;;
42702;SDS011;28341;52.064;4.920;2022-11-15T10:29:42;14.70;;;8.20;;
42702;SDS011;28341;52.064;4.920;2022-11-15T10:31:49;12.27;;;7.68;;
42702;SDS011;28341;52.064;4.920;2022-11-15T10:33:56;11.82;;;7.47;;
42702;SDS011;28341;52.064;4.920;2022-11-15T10:36:14;13.10;;;8.57;;
42702;SDS011;28341;52.064;4.920;2022-11-15T10:38:21;13.20;;;7.70;;
42702;SDS011;28341;52.064;4.920;2022-11-15T10:40:25;14.63;;;8.02;;
42702;SDS011;28341;52.064;4.920;2022-11-15T10:42:29;16.45;;;8.23;;
42702;SDS011;28341;52.064;4.920;2022-11-15T10:44:33;11.80;;;6.90;;
42702;SDS011;28341;52.064;4.920;2022-11-15T10:46:47;13.75;;;6.30;;
42702;SDS011;28341;52.064;4.920;2022-11-15T10:49:12;10.43;;;6.82;;
42702;SDS011;28341;52.064;4.920;2022-11-15T10:51:19;10.73;;;6.85;;
42702;SDS011;28341;52.064;4.920;2022-11-15T10:53:31;13.55;;;5.95;;
42702;SDS011;28341;52.064;4.920;2022-11-15T10:55:47;14.65;;;6.30;;
42702;SDS011;28341;52.064;4.920;2022-11-15T10:57:55;12.38;;;6.18;;
42702;SDS011;28341;52.064;4.920;2022-11-15T11:00:05;13.32;;;5.45;;
42702;SDS011;28341;52.064;4.920;2022-11-15T11:02:33;12.20;;;5.60;;
42702;SDS011;28341;52.064;4.920;2022-11-15T11:04:49;10.55;;;5.05;;
42702;SDS011;28341;52.064;4.920;2022-11-15T11:06:54;8.93;;;5.60;;
42702;SDS011;28341;52.064;4.920;2022-11-15T11:09:01;13.55;;;5.40;;
42702;SDS011;28341;52.064;4.920;2022-11-15T11:11:14;10.18;;;4.60;;
42702;SDS011;28341;52.064;4.920;2022-11-15T11:13:24;13.05;;;5.07;;
42702;SDS011;28341;52.064;4.920;2022-11-15T11:15:37;12.30;;;4.40;;
42702;SDS011;28341;52.064;4.920;2022-11-15T11:17:54;10.05;;;3.90;;
42702;SDS011;28341;52.064;4.920;2022-11-15T11:20:13;11.65;;;3.88;;
42702;SDS011;28341;52.064;4.920;2022-11-15T11:22:30;12.82;;;4.38;;
42702;SDS011;28341;52.064;4.920;2022-11-15T12:29:29;10.35;;;2.80;;
42702;SDS011;28341;52.064;4.920;2022-11-15T12:31:38;11.65;;;3.55;;
42702;SDS011;28341;52.064;4.920;2022-11-15T12:33:44;11.15;;;2.10;;
42702;SDS011;28341;52.064;4.920;2022-11-15T12:35:57;11.82;;;1.90;;
42702;SDS011;28341;52.064;4.920;2022-11-15T12:38:03;11.07;;;2.15;;
42702;SDS011;28341;52.064;4.920;2022-11-15T12:40:23;8.70;;;2.65;;
42702;SDS011;28341;52.064;4.920;2022-11-15T12:42:38;7.18;;;2.30;;
42702;SDS011;28341;52.064;4.920;2022-11-15T12:45:00;9.98;;;1.50;;
42702;SDS011;28341;52.064;4.920;2022-11-15T12:47:13;15.52;;;2.05;;
42702;SDS011;28341;52.064;4.920;2022-11-15T12:56:48;10.77;;;2.90;;
42702;SDS011;28341;52.064;4.920;2022-11-15T12:59:48;9.35;;;2.97;;
42702;SDS011;28341;52.064;4.920;2022-11-15T13:01:58;9.77;;;2.75;;
42702;SDS011;28341;52.064;4.920;2022-11-15T13:04:13;9.00;;;2.15;;
42702;SDS011;28341;52.064;4.920;2022-11-15T13:06:38;14.98;;;2.35;;
42702;SDS011;28341;52.064;4.920;2022-11-15T13:08:46;10.10;;;2.38;;
42702;SDS011;28341;52.064;4.920;2022-11-15T13:10:52;9.05;;;1.52;;
42702;SDS011;28341;52.064;4.920;2022-11-15T13:12:59;5.10;;;1.42;;
42702;SDS011;28341;52.064;4.920;2022-11-15T13:18:15;12.68;;;2.95;;
42702;SDS011;28341;52.064;4.920;2022-11-15T13:20:44;9.13;;;1.65;;
42702;SDS011;28341;52.064;4.920;2022-11-15T13:22:49;7.68;;;1.50;;
42702;SDS011;28341;52.064;4.920;2022-11-15T13:24:51;7.40;;;1.48;;
42702;SDS011;28341;52.064;4.920;2022-11-15T13:26:56;10.60;;;2.15;;
42702;SDS011;28341;52.064;4.920;2022-11-15T13:29:04;9.40;;;2.65;;
42702;SDS011;28341;52.064;4.920;2022-11-15T13:31:23;11.80;;;2.60;;
42702;SDS011;28341;52.064;4.920;2022-11-15T13:33:32;10.95;;;3.10;;
42702;SDS011;28341;52.064;4.920;2022-11-15T13:35:38;8.20;;;2.30;;
42702;SDS011;28341;52.064;4.920;2022-11-15T13:37:44;8.85;;;2.72;;
42702;SDS011;28341;52.064;4.920;2022-11-15T13:39:48;8.95;;;1.90;;
42702;SDS011;28341;52.064;4.920;2022-11-15T13:41:53;8.65;;;1.95;;
42702;SDS011;28341;52.064;4.920;2022-11-15T13:43:58;8.98;;;2.08;;
42702;SDS011;28341;52.064;4.920;2022-11-15T13:46:09;10.50;;;3.00;;
42702;SDS011;28341;52.064;4.920;2022-11-15T13:48:16;10.82;;;1.67;;
42702;SDS011;28341;52.064;4.920;2022-11-15T13:50:20;7.28;;;1.40;;
42702;SDS011;28341;52.064;4.920;2022-11-15T13:52:33;9.85;;;1.88;;
42702;SDS011;28341;52.064;4.920;2022-11-15T13:54:41;9.38;;;1.80;;
42702;SDS011;28341;52.064;4.920;2022-11-15T13:56:48;7.32;;;1.58;;
42702;SDS011;28341;52.064;4.920;2022-11-15T13:58:56;7.00;;;1.63;;
42702;SDS011;28341;52.064;4.920;2022-11-15T14:01:00;8.27;;;1.70;;
42702;SDS011;28341;52.064;4.920;2022-11-15T14:03:16;7.13;;;1.35;;
42702;SDS011;28341;52.064;4.920;2022-11-15T14:05:23;10.20;;;2.67;;
42702;SDS011;28341;52.064;4.920;2022-11-15T14:07:28;9.52;;;2.05;;
42702;SDS011;28341;52.064;4.920;2022-11-15T14:09:37;9.13;;;1.70;;
42702;SDS011;28341;52.064;4.920;2022-11-15T14:11:49;11.88;;;2.20;;
42702;SDS011;28341;52.064;4.920;2022-11-15T14:16:20;9.65;;;2.00;;
42702;SDS011;28341;52.064;4.920;2022-11-15T14:18:41;7.30;;;2.67;;
42702;SDS011;28341;52.064;4.920;2022-11-15T14:22:53;8.50;;;1.60;;
42702;SDS011;28341;52.064;4.920;2022-11-15T14:25:06;10.27;;;1.67;;
42702;SDS011;28341;52.064;4.920;2022-11-15T14:27:20;9.10;;;1.23;;
42702;SDS011;28341;52.064;4.920;2022-11-15T14:29:27;10.57;;;1.63;;
42702;SDS011;28341;52.064;4.920;2022-11-15T14:31:32;7.70;;;1.33;;
42702;SDS011;28341;52.064;4.920;2022-11-15T14:33:37;4.82;;;1.52;;
42702;SDS011;28341;52.064;4.920;2022-11-15T14:35:44;7.75;;;1.63;;
42702;SDS011;28341;52.064;4.920;2022-11-15T14:37:49;7.32;;;1.45;;
42702;SDS011;28341;52.064;4.920;2022-11-15T14:39:53;7.32;;;1.60;;
42702;SDS011;28341;52.064;4.920;2022-11-15T14:41:58;9.30;;;1.92;;
42702;SDS011;28341;52.064;4.920;2022-11-15T14:44:02;7.50;;;1.55;;
42702;SDS011;28341;52.064;4.920;2022-11-15T14:46:06;7.10;;;1.63;;
42702;SDS011;28341;52.064;4.920;2022-11-15T14:48:11;7.18;;;1.75;;
42702;SDS011;28341;52.064;4.920;2022-11-15T14:50:18;6.68;;;1.60;;
42702;SDS011;28341;52.064;4.920;2022-11-15T14:52:25;10.70;;;1.67;;
42702;SDS011;28341;52.064;4.920;2022-11-15T14:54:34;5.88;;;1.50;;
42702;SDS011;28341;52.064;4.920;2022-11-15T14:56:38;8.52;;;1.70;;
42702;SDS011;28341;52.064;4.920;2022-11-15T14:58:42;6.32;;;1.20;;
42702;SDS011;28341;52.064;4.920;2022-11-15T15:00:47;6.80;;;1.42;;
42702;SDS011;28341;52.064;4.920;2022-11-15T15:02:52;5.80;;;1.33;;
42702;SDS011;28341;52.064;4.920;2022-11-15T15:04:57;7.97;;;2.22;;
42702;SDS011;28341;52.064;4.920;2022-11-15T15:07:05;7.53;;;2.22;;
42702;SDS011;28341;52.064;4.920;2022-11-15T15:09:10;5.47;;;1.67;;
42702;SDS011;28341;52.064;4.920;2022-11-15T15:11:14;11.93;;;2.20;;
42702;SDS011;28341;52.064;4.920;2022-11-15T15:13:22;9.13;;;2.20;;
42702;SDS011;28341;52.064;4.920;2022-11-15T15:15:31;4.50;;;1.67;;
42702;SDS011;28341;52.064;4.920;2022-11-15T15:17:37;10.07;;;2.15;;
42702;SDS011;28341;52.064;4.920;2022-11-15T15:19:41;9.88;;;2.88;;